sensor_id;sensor_type;location;lat;lon;timestamp;P1;durP1;ratioP1;P2;durP2;ratioP2
62707;SDS011;48769;51.624;5.886;2023-03-16T00:01:59;11.57;;;5.70;;
62707;SDS011;48769;51.624;5.886;2023-03-16T00:04:25;9.13;;;5.40;;
62707;SDS011;48769;51.624;5.886;2023-03-16T00:06:50;10.65;;;5.45;;
62707;SDS011;48769;51.624;5.886;2023-03-16T00:09:15;8.52;;;5.43;;
62707;SDS011;48769;51.624;5.886;2023-03-16T00:11:41;7.15;;;4.63;;
62707;SDS011;48769;51.624;5.886;2023-03-16T00:14:06;11.85;;;6.90;;
62707;SDS011;48769;51.624;5.886;2023-03-16T00:16:32;7.22;;;5.53;;
62707;SDS011;48769;51.624;5.886;2023-03-16T00:18:59;9.07;;;5.32;;
62707;SDS011;48769;51.624;5.886;2023-03-16T00:21:27;9.93;;;5.45;;
62707;SDS011;48769;51.624;5.886;2023-03-16T00:23:54;6.40;;;5.07;;
62707;SDS011;48769;51.624;5.886;2023-03-16T00:26:20;8.55;;;5.75;;
62707;SDS011;48769;51.624;5.886;2023-03-16T00:28:46;10.70;;;6.13;;
62707;SDS011;48769;51.624;5.886;2023-03-16T00:31:11;14.20;;;6.03;;
62707;SDS011;48769;51.624;5.886;2023-03-16T00:33:41;7.30;;;5.43;;
62707;SDS011;48769;51.624;5.886;2023-03-16T00:36:07;6.75;;;5.38;;
62707;SDS011;48769;51.624;5.886;2023-03-16T00:38:34;10.48;;;6.28;;
62707;SDS011;48769;51.624;5.886;2023-03-16T00:41:01;7.90;;;6.00;;
62707;SDS011;48769;51.624;5.886;2023-03-16T00:43:28;11.13;;;6.10;;
62707;SDS011;48769;51.624;5.886;2023-03-16T00:45:58;13.55;;;5.38;;
62707;SDS011;48769;51.624;5.886;2023-03-16T00:48:30;9.85;;;5.65;;
62707;SDS011;48769;51.624;5.886;2023-03-16T00:50:58;7.50;;;5.88;;
62707;SDS011;48769;51.624;5.886;2023-03-16T00:53:24;8.73;;;5.72;;
62707;SDS011;48769;51.624;5.886;2023-03-16T00:55:50;9.00;;;5.85;;
62707;SDS011;48769;51.624;5.886;2023-03-16T00:58:17;8.45;;;5.70;;
62707;SDS011;48769;51.624;5.886;2023-03-16T01:00:44;11.30;;;5.90;;
62707;SDS011;48769;51.624;5.886;2023-03-16T01:03:09;11.60;;;6.43;;
62707;SDS011;48769;51.624;5.886;2023-03-16T01:05:38;10.27;;;6.18;;
62707;SDS011;48769;51.624;5.886;2023-03-16T01:08:04;9.45;;;6.03;;
62707;SDS011;48769;51.624;5.886;2023-03-16T01:10:30;7.03;;;6.13;;
62707;SDS011;48769;51.624;5.886;2023-03-16T01:12:55;10.75;;;6.63;;
62707;SDS011;48769;51.624;5.886;2023-03-16T01:15:21;7.18;;;6.47;;
62707;SDS011;48769;51.624;5.886;2023-03-16T01:17:46;7.97;;;5.72;;
62707;SDS011;48769;51.624;5.886;2023-03-16T01:20:12;12.40;;;5.78;;
62707;SDS011;48769;51.624;5.886;2023-03-16T01:22:39;7.93;;;5.95;;
62707;SDS011;48769;51.624;5.886;2023-03-16T01:25:06;9.07;;;5.50;;
62707;SDS011;48769;51.624;5.886;2023-03-16T01:27:31;12.27;;;6.38;;
62707;SDS011;48769;51.624;5.886;2023-03-16T01:29:57;9.15;;;6.18;;
62707;SDS011;48769;51.624;5.886;2023-03-16T01:32:22;10.23;;;6.28;;
62707;SDS011;48769;51.624;5.886;2023-03-16T01:34:48;11.40;;;6.03;;
62707;SDS011;48769;51.624;5.886;2023-03-16T01:37:13;9.35;;;6.00;;
62707;SDS011;48769;51.624;5.886;2023-03-16T01:39:38;8.18;;;6.05;;
62707;SDS011;48769;51.624;5.886;2023-03-16T01:42:04;10.27;;;6.10;;
62707;SDS011;48769;51.624;5.886;2023-03-16T01:44:48;7.78;;;5.50;;
62707;SDS011;48769;51.624;5.886;2023-03-16T01:47:16;11.23;;;5.80;;
62707;SDS011;48769;51.624;5.886;2023-03-16T01:49:42;9.15;;;5.53;;
62707;SDS011;48769;51.624;5.886;2023-03-16T01:52:13;8.55;;;6.20;;
62707;SDS011;48769;51.624;5.886;2023-03-16T01:54:44;10.93;;;6.07;;
62707;SDS011;48769;51.624;5.886;2023-03-16T01:57:23;7.00;;;5.20;;
62707;SDS011;48769;51.624;5.886;2023-03-16T01:59:56;9.43;;;5.80;;
62707;SDS011;48769;51.624;5.886;2023-03-16T02:02:33;9.48;;;5.22;;
62707;SDS011;48769;51.624;5.886;2023-03-16T02:05:03;7.35;;;5.10;;
62707;SDS011;48769;51.624;5.886;2023-03-16T02:07:35;8.80;;;5.13;;
62707;SDS011;48769;51.624;5.886;2023-03-16T02:10:06;9.23;;;5.38;;
62707;SDS011;48769;51.624;5.886;2023-03-16T02:12:33;6.95;;;5.15;;
62707;SDS011;48769;51.624;5.886;2023-03-16T02:14:58;13.27;;;5.10;;
62707;SDS011;48769;51.624;5.886;2023-03-16T02:17:25;8.07;;;5.32;;
62707;SDS011;48769;51.624;5.886;2023-03-16T02:22:45;6.30;;;4.93;;
62707;SDS011;48769;51.624;5.886;2023-03-16T02:25:13;10.73;;;5.50;;
62707;SDS011;48769;51.624;5.886;2023-03-16T02:28:04;6.25;;;5.00;;
62707;SDS011;48769;51.624;5.886;2023-03-16T02:30:39;9.88;;;5.05;;
62707;SDS011;48769;51.624;5.886;2023-03-16T02:33:05;6.85;;;5.32;;
62707;SDS011;48769;51.624;5.886;2023-03-16T02:35:31;9.25;;;5.13;;
62707;SDS011;48769;51.624;5.886;2023-03-16T02:37:57;8.75;;;5.43;;
62707;SDS011;48769;51.624;5.886;2023-03-16T02:40:30;9.98;;;4.85;;
62707;SDS011;48769;51.624;5.886;2023-03-16T02:45:32;10.80;;;5.40;;
62707;SDS011;48769;51.624;5.886;2023-03-16T02:48:08;11.20;;;5.60;;
62707;SDS011;48769;51.624;5.886;2023-03-16T02:50:49;8.55;;;5.05;;
62707;SDS011;48769;51.624;5.886;2023-03-16T02:53:17;8.88;;;5.47;;
62707;SDS011;48769;51.624;5.886;2023-03-16T02:55:43;10.82;;;4.72;;
62707;SDS011;48769;51.624;5.886;2023-03-16T02:58:10;7.53;;;5.38;;
62707;SDS011;48769;51.624;5.886;2023-03-16T03:00:36;9.93;;;5.40;;
62707;SDS011;48769;51.624;5.886;2023-03-16T03:03:02;7.95;;;5.03;;
62707;SDS011;48769;51.624;5.886;2023-03-16T03:05:28;7.32;;;4.68;;
62707;SDS011;48769;51.624;5.886;2023-03-16T03:07:53;7.10;;;4.90;;
62707;SDS011;48769;51.624;5.886;2023-03-16T03:10:19;6.80;;;5.03;;
62707;SDS011;48769;51.624;5.886;2023-03-16T03:12:44;10.75;;;5.15;;
62707;SDS011;48769;51.624;5.886;2023-03-16T03:15:13;5.55;;;4.68;;
62707;SDS011;48769;51.624;5.886;2023-03-16T03:17:38;7.50;;;5.30;;
62707;SDS011;48769;51.624;5.886;2023-03-16T03:20:04;12.32;;;5.13;;
62707;SDS011;48769;51.624;5.886;2023-03-16T03:22:37;10.70;;;5.10;;
62707;SDS011;48769;51.624;5.886;2023-03-16T03:25:03;8.70;;;5.13;;
62707;SDS011;48769;51.624;5.886;2023-03-16T03:27:28;9.98;;;5.20;;
62707;SDS011;48769;51.624;5.886;2023-03-16T03:29:54;9.32;;;5.88;;
62707;SDS011;48769;51.624;5.886;2023-03-16T03:32:19;8.02;;;4.88;;
62707;SDS011;48769;51.624;5.886;2023-03-16T03:34:45;7.72;;;5.28;;
62707;SDS011;48769;51.624;5.886;2023-03-16T03:37:11;9.20;;;4.68;;
62707;SDS011;48769;51.624;5.886;2023-03-16T03:39:36;9.98;;;4.90;;
62707;SDS011;48769;51.624;5.886;2023-03-16T03:42:04;6.20;;;5.10;;
62707;SDS011;48769;51.624;5.886;2023-03-16T03:44:30;5.97;;;4.90;;
62707;SDS011;48769;51.624;5.886;2023-03-16T03:46:58;8.70;;;4.93;;
62707;SDS011;48769;51.624;5.886;2023-03-16T03:49:24;9.15;;;5.10;;
62707;SDS011;48769;51.624;5.886;2023-03-16T03:51:50;7.70;;;4.97;;
62707;SDS011;48769;51.624;5.886;2023-03-16T03:54:15;9.73;;;5.43;;
62707;SDS011;48769;51.624;5.886;2023-03-16T03:56:41;11.63;;;5.22;;
62707;SDS011;48769;51.624;5.886;2023-03-16T03:59:06;9.02;;;5.38;;
62707;SDS011;48769;51.624;5.886;2023-03-16T04:01:32;8.70;;;5.35;;
62707;SDS011;48769;51.624;5.886;2023-03-16T04:03:57;9.90;;;5.70;;
62707;SDS011;48769;51.624;5.886;2023-03-16T04:06:22;8.13;;;5.47;;
62707;SDS011;48769;51.624;5.886;2023-03-16T04:08:48;12.13;;;5.15;;
62707;SDS011;48769;51.624;5.886;2023-03-16T04:11:15;7.72;;;5.35;;
62707;SDS011;48769;51.624;5.886;2023-03-16T04:13:40;8.85;;;5.43;;
62707;SDS011;48769;51.624;5.886;2023-03-16T04:16:06;9.52;;;5.25;;
62707;SDS011;48769;51.624;5.886;2023-03-16T04:18:31;7.07;;;5.00;;
62707;SDS011;48769;51.624;5.886;2023-03-16T04:21:04;6.43;;;5.22;;
62707;SDS011;48769;51.624;5.886;2023-03-16T04:23:30;8.13;;;4.68;;
62707;SDS011;48769;51.624;5.886;2023-03-16T04:26:00;12.43;;;5.55;;
62707;SDS011;48769;51.624;5.886;2023-03-16T04:28:25;11.68;;;5.63;;
62707;SDS011;48769;51.624;5.886;2023-03-16T04:30:51;6.70;;;4.93;;
62707;SDS011;48769;51.624;5.886;2023-03-16T04:33:20;11.27;;;5.15;;
62707;SDS011;48769;51.624;5.886;2023-03-16T04:35:46;6.63;;;5.28;;
62707;SDS011;48769;51.624;5.886;2023-03-16T04:38:12;9.07;;;5.45;;
62707;SDS011;48769;51.624;5.886;2023-03-16T04:40:37;6.00;;;4.68;;
62707;SDS011;48769;51.624;5.886;2023-03-16T04:43:03;7.75;;;5.40;;
62707;SDS011;48769;51.624;5.886;2023-03-16T04:45:28;10.38;;;6.00;;
62707;SDS011;48769;51.624;5.886;2023-03-16T04:47:53;9.80;;;5.68;;
62707;SDS011;48769;51.624;5.886;2023-03-16T04:50:19;7.85;;;5.13;;
62707;SDS011;48769;51.624;5.886;2023-03-16T04:52:44;10.75;;;5.38;;
62707;SDS011;48769;51.624;5.886;2023-03-16T04:55:09;7.15;;;5.30;;
62707;SDS011;48769;51.624;5.886;2023-03-16T04:57:35;7.25;;;5.13;;
62707;SDS011;48769;51.624;5.886;2023-03-16T05:00:00;11.07;;;5.00;;
62707;SDS011;48769;51.624;5.886;2023-03-16T05:02:26;7.43;;;5.07;;
62707;SDS011;48769;51.624;5.886;2023-03-16T05:04:51;13.48;;;6.47;;
62707;SDS011;48769;51.624;5.886;2023-03-16T05:07:17;8.52;;;5.40;;
62707;SDS011;48769;51.624;5.886;2023-03-16T05:09:43;9.02;;;5.45;;
62707;SDS011;48769;51.624;5.886;2023-03-16T05:12:08;9.73;;;5.15;;
62707;SDS011;48769;51.624;5.886;2023-03-16T05:14:34;12.48;;;4.60;;
62707;SDS011;48769;51.624;5.886;2023-03-16T05:17:00;9.73;;;5.07;;
62707;SDS011;48769;51.624;5.886;2023-03-16T05:19:27;10.95;;;5.30;;
62707;SDS011;48769;51.624;5.886;2023-03-16T05:21:54;11.35;;;5.13;;
62707;SDS011;48769;51.624;5.886;2023-03-16T05:24:20;8.93;;;5.45;;
62707;SDS011;48769;51.624;5.886;2023-03-16T05:26:48;7.65;;;4.78;;
62707;SDS011;48769;51.624;5.886;2023-03-16T05:29:13;12.48;;;5.03;;
62707;SDS011;48769;51.624;5.886;2023-03-16T05:31:38;10.15;;;5.28;;
62707;SDS011;48769;51.624;5.886;2023-03-16T05:34:04;13.70;;;5.45;;
62707;SDS011;48769;51.624;5.886;2023-03-16T05:36:30;8.63;;;4.45;;
62707;SDS011;48769;51.624;5.886;2023-03-16T05:38:55;9.57;;;5.35;;
62707;SDS011;48769;51.624;5.886;2023-03-16T05:41:21;9.57;;;4.80;;
62707;SDS011;48769;51.624;5.886;2023-03-16T05:43:47;7.15;;;5.13;;
62707;SDS011;48769;51.624;5.886;2023-03-16T05:46:13;10.38;;;5.45;;
62707;SDS011;48769;51.624;5.886;2023-03-16T05:48:38;9.20;;;6.10;;
62707;SDS011;48769;51.624;5.886;2023-03-16T05:51:04;10.23;;;5.13;;
62707;SDS011;48769;51.624;5.886;2023-03-16T05:53:30;10.50;;;4.75;;
62707;SDS011;48769;51.624;5.886;2023-03-16T05:55:56;6.72;;;4.95;;
62707;SDS011;48769;51.624;5.886;2023-03-16T05:58:21;8.25;;;5.10;;
62707;SDS011;48769;51.624;5.886;2023-03-16T06:00:47;11.23;;;5.50;;
62707;SDS011;48769;51.624;5.886;2023-03-16T06:03:14;9.95;;;5.13;;
62707;SDS011;48769;51.624;5.886;2023-03-16T06:05:39;7.07;;;5.50;;
62707;SDS011;48769;51.624;5.886;2023-03-16T06:08:05;8.35;;;5.65;;
62707;SDS011;48769;51.624;5.886;2023-03-16T06:10:31;13.30;;;6.03;;
62707;SDS011;48769;51.624;5.886;2023-03-16T06:12:56;10.50;;;5.90;;
62707;SDS011;48769;51.624;5.886;2023-03-16T06:15:22;10.52;;;6.05;;
62707;SDS011;48769;51.624;5.886;2023-03-16T06:17:49;9.82;;;5.70;;
62707;SDS011;48769;51.624;5.886;2023-03-16T06:20:14;7.57;;;5.32;;
62707;SDS011;48769;51.624;5.886;2023-03-16T06:22:42;8.07;;;5.47;;
62707;SDS011;48769;51.624;5.886;2023-03-16T06:25:08;9.57;;;5.57;;
62707;SDS011;48769;51.624;5.886;2023-03-16T06:27:36;7.38;;;5.93;;
62707;SDS011;48769;51.624;5.886;2023-03-16T06:30:02;11.00;;;5.95;;
62707;SDS011;48769;51.624;5.886;2023-03-16T06:32:28;8.38;;;5.65;;
62707;SDS011;48769;51.624;5.886;2023-03-16T06:34:53;14.93;;;6.43;;
62707;SDS011;48769;51.624;5.886;2023-03-16T06:37:18;6.28;;;5.32;;
62707;SDS011;48769;51.624;5.886;2023-03-16T06:39:43;9.38;;;6.40;;
62707;SDS011;48769;51.624;5.886;2023-03-16T06:42:09;9.07;;;6.22;;
62707;SDS011;48769;51.624;5.886;2023-03-16T06:44:35;9.45;;;5.97;;
62707;SDS011;48769;51.624;5.886;2023-03-16T06:47:01;9.52;;;6.10;;
62707;SDS011;48769;51.624;5.886;2023-03-16T06:49:28;8.20;;;6.15;;
62707;SDS011;48769;51.624;5.886;2023-03-16T06:51:53;10.35;;;6.97;;
62707;SDS011;48769;51.624;5.886;2023-03-16T06:54:19;11.38;;;6.72;;
62707;SDS011;48769;51.624;5.886;2023-03-16T06:56:44;11.38;;;5.95;;
62707;SDS011;48769;51.624;5.886;2023-03-16T06:59:09;10.93;;;6.47;;
62707;SDS011;48769;51.624;5.886;2023-03-16T07:01:35;11.85;;;6.78;;
62707;SDS011;48769;51.624;5.886;2023-03-16T07:04:00;9.25;;;6.70;;
62707;SDS011;48769;51.624;5.886;2023-03-16T07:06:25;10.55;;;6.68;;
62707;SDS011;48769;51.624;5.886;2023-03-16T07:08:51;10.07;;;7.07;;
62707;SDS011;48769;51.624;5.886;2023-03-16T07:11:16;12.32;;;7.00;;
62707;SDS011;48769;51.624;5.886;2023-03-16T07:13:42;11.48;;;6.80;;
62707;SDS011;48769;51.624;5.886;2023-03-16T07:16:08;10.52;;;5.97;;
62707;SDS011;48769;51.624;5.886;2023-03-16T07:18:33;11.95;;;6.50;;
62707;SDS011;48769;51.624;5.886;2023-03-16T07:21:01;13.95;;;7.07;;
62707;SDS011;48769;51.624;5.886;2023-03-16T07:23:27;13.43;;;7.18;;
62707;SDS011;48769;51.624;5.886;2023-03-16T07:25:53;12.65;;;6.82;;
62707;SDS011;48769;51.624;5.886;2023-03-16T07:28:18;8.30;;;6.38;;
62707;SDS011;48769;51.624;5.886;2023-03-16T07:30:44;11.27;;;6.72;;
62707;SDS011;48769;51.624;5.886;2023-03-16T07:33:10;11.18;;;6.80;;
62707;SDS011;48769;51.624;5.886;2023-03-16T07:35:35;12.82;;;6.63;;
62707;SDS011;48769;51.624;5.886;2023-03-16T07:38:01;12.80;;;6.70;;
62707;SDS011;48769;51.624;5.886;2023-03-16T07:40:26;10.25;;;6.35;;
62707;SDS011;48769;51.624;5.886;2023-03-16T07:42:52;11.13;;;5.97;;
62707;SDS011;48769;51.624;5.886;2023-03-16T07:45:17;12.55;;;6.50;;
62707;SDS011;48769;51.624;5.886;2023-03-16T07:47:43;10.50;;;6.35;;
62707;SDS011;48769;51.624;5.886;2023-03-16T07:50:09;12.82;;;6.60;;
62707;SDS011;48769;51.624;5.886;2023-03-16T07:52:35;12.75;;;6.40;;
62707;SDS011;48769;51.624;5.886;2023-03-16T07:55:01;9.82;;;6.18;;
62707;SDS011;48769;51.624;5.886;2023-03-16T07:57:26;13.43;;;6.78;;
62707;SDS011;48769;51.624;5.886;2023-03-16T07:59:51;12.00;;;6.05;;
62707;SDS011;48769;51.624;5.886;2023-03-16T08:02:17;9.57;;;6.25;;
62707;SDS011;48769;51.624;5.886;2023-03-16T08:04:44;9.60;;;6.38;;
62707;SDS011;48769;51.624;5.886;2023-03-16T08:07:10;15.05;;;6.57;;
62707;SDS011;48769;51.624;5.886;2023-03-16T08:09:37;11.52;;;5.85;;
62707;SDS011;48769;51.624;5.886;2023-03-16T08:12:03;9.90;;;6.45;;
62707;SDS011;48769;51.624;5.886;2023-03-16T08:14:30;10.38;;;6.15;;
62707;SDS011;48769;51.624;5.886;2023-03-16T08:16:58;9.30;;;6.47;;
62707;SDS011;48769;51.624;5.886;2023-03-16T08:19:25;9.70;;;5.97;;
62707;SDS011;48769;51.624;5.886;2023-03-16T08:21:51;11.02;;;6.53;;
62707;SDS011;48769;51.624;5.886;2023-03-16T08:24:16;8.70;;;6.03;;
62707;SDS011;48769;51.624;5.886;2023-03-16T08:26:41;9.93;;;6.10;;
62707;SDS011;48769;51.624;5.886;2023-03-16T08:29:07;11.95;;;6.10;;
62707;SDS011;48769;51.624;5.886;2023-03-16T08:31:32;14.32;;;5.97;;
62707;SDS011;48769;51.624;5.886;2023-03-16T08:33:59;10.27;;;5.63;;
62707;SDS011;48769;51.624;5.886;2023-03-16T08:36:25;7.80;;;5.82;;
62707;SDS011;48769;51.624;5.886;2023-03-16T08:38:52;13.70;;;5.68;;
62707;SDS011;48769;51.624;5.886;2023-03-16T08:41:18;12.52;;;6.45;;
62707;SDS011;48769;51.624;5.886;2023-03-16T08:43:44;12.95;;;5.68;;
62707;SDS011;48769;51.624;5.886;2023-03-16T08:46:10;14.75;;;6.05;;
62707;SDS011;48769;51.624;5.886;2023-03-16T08:48:37;7.18;;;5.55;;
62707;SDS011;48769;51.624;5.886;2023-03-16T08:51:04;14.65;;;6.30;;
62707;SDS011;48769;51.624;5.886;2023-03-16T08:53:30;9.82;;;5.35;;
62707;SDS011;48769;51.624;5.886;2023-03-16T08:56:00;10.52;;;5.90;;
62707;SDS011;48769;51.624;5.886;2023-03-16T08:58:33;10.85;;;5.50;;
62707;SDS011;48769;51.624;5.886;2023-03-16T09:01:00;8.25;;;5.63;;
62707;SDS011;48769;51.624;5.886;2023-03-16T09:03:27;8.60;;;5.13;;
62707;SDS011;48769;51.624;5.886;2023-03-16T09:05:53;7.10;;;5.05;;
62707;SDS011;48769;51.624;5.886;2023-03-16T09:08:24;10.52;;;4.63;;
62707;SDS011;48769;51.624;5.886;2023-03-16T09:10:49;6.78;;;4.22;;
62707;SDS011;48769;51.624;5.886;2023-03-16T09:13:15;7.30;;;4.55;;
62707;SDS011;48769;51.624;5.886;2023-03-16T09:15:40;11.20;;;4.35;;
62707;SDS011;48769;51.624;5.886;2023-03-16T09:18:06;7.03;;;4.15;;
62707;SDS011;48769;51.624;5.886;2023-03-16T09:20:32;9.05;;;4.68;;
62707;SDS011;48769;51.624;5.886;2023-03-16T09:22:58;7.32;;;4.40;;
62707;SDS011;48769;51.624;5.886;2023-03-16T09:25:23;7.05;;;4.30;;
62707;SDS011;48769;51.624;5.886;2023-03-16T09:27:50;8.98;;;4.25;;
62707;SDS011;48769;51.624;5.886;2023-03-16T09:30:15;11.15;;;4.53;;
62707;SDS011;48769;51.624;5.886;2023-03-16T09:32:41;7.68;;;4.10;;
62707;SDS011;48769;51.624;5.886;2023-03-16T09:35:06;9.75;;;4.80;;
62707;SDS011;48769;51.624;5.886;2023-03-16T09:37:32;10.18;;;5.03;;
62707;SDS011;48769;51.624;5.886;2023-03-16T09:39:58;6.78;;;4.53;;
62707;SDS011;48769;51.624;5.886;2023-03-16T09:42:26;6.90;;;4.15;;
62707;SDS011;48769;51.624;5.886;2023-03-16T09:47:55;8.02;;;4.93;;
62707;SDS011;48769;51.624;5.886;2023-03-16T09:50:30;10.05;;;4.97;;
62707;SDS011;48769;51.624;5.886;2023-03-16T09:55:29;8.70;;;4.57;;
62707;SDS011;48769;51.624;5.886;2023-03-16T09:57:57;6.35;;;4.50;;
62707;SDS011;48769;51.624;5.886;2023-03-16T10:00:37;5.65;;;4.10;;
62707;SDS011;48769;51.624;5.886;2023-03-16T10:03:14;9.32;;;4.68;;
62707;SDS011;48769;51.624;5.886;2023-03-16T10:05:41;11.07;;;4.18;;
62707;SDS011;48769;51.624;5.886;2023-03-16T10:08:12;9.10;;;4.10;;
62707;SDS011;48769;51.624;5.886;2023-03-16T10:13:12;7.20;;;4.40;;
62707;SDS011;48769;51.624;5.886;2023-03-16T10:15:40;7.38;;;4.10;;
62707;SDS011;48769;51.624;5.886;2023-03-16T10:18:17;9.05;;;4.10;;
62707;SDS011;48769;51.624;5.886;2023-03-16T10:20:46;8.02;;;4.10;;
62707;SDS011;48769;51.624;5.886;2023-03-16T10:23:15;7.63;;;4.03;;
62707;SDS011;48769;51.624;5.886;2023-03-16T10:28:11;7.28;;;3.92;;
62707;SDS011;48769;51.624;5.886;2023-03-16T10:30:40;4.13;;;3.08;;
62707;SDS011;48769;51.624;5.886;2023-03-16T10:33:12;9.02;;;4.20;;
62707;SDS011;48769;51.624;5.886;2023-03-16T10:43:54;7.70;;;3.85;;
62707;SDS011;48769;51.624;5.886;2023-03-16T10:46:26;8.75;;;3.65;;
62707;SDS011;48769;51.624;5.886;2023-03-16T10:48:53;8.02;;;3.92;;
62707;SDS011;48769;51.624;5.886;2023-03-16T10:51:24;4.28;;;3.38;;
62707;SDS011;48769;51.624;5.886;2023-03-16T10:53:53;10.65;;;4.05;;
62707;SDS011;48769;51.624;5.886;2023-03-16T10:56:23;6.03;;;3.55;;
62707;SDS011;48769;51.624;5.886;2023-03-16T10:58:49;5.57;;;3.72;;
62707;SDS011;48769;51.624;5.886;2023-03-16T11:01:25;7.85;;;3.90;;
62707;SDS011;48769;51.624;5.886;2023-03-16T11:03:53;5.10;;;3.45;;
62707;SDS011;48769;51.624;5.886;2023-03-16T11:06:24;8.15;;;3.53;;
62707;SDS011;48769;51.624;5.886;2023-03-16T11:08:54;5.82;;;3.40;;
62707;SDS011;48769;51.624;5.886;2023-03-16T11:11:26;6.45;;;3.67;;
62707;SDS011;48769;51.624;5.886;2023-03-16T11:13:57;5.07;;;3.10;;
62707;SDS011;48769;51.624;5.886;2023-03-16T11:16:27;6.90;;;3.60;;
62707;SDS011;48769;51.624;5.886;2023-03-16T11:19:28;7.25;;;3.60;;
62707;SDS011;48769;51.624;5.886;2023-03-16T11:30:07;10.07;;;3.63;;
62707;SDS011;48769;51.624;5.886;2023-03-16T11:32:46;6.43;;;3.65;;
62707;SDS011;48769;51.624;5.886;2023-03-16T11:35:16;5.60;;;3.38;;
62707;SDS011;48769;51.624;5.886;2023-03-16T11:37:50;5.35;;;3.63;;
62707;SDS011;48769;51.624;5.886;2023-03-16T11:40:40;7.60;;;3.85;;
62707;SDS011;48769;51.624;5.886;2023-03-16T11:44:22;5.30;;;3.63;;
62707;SDS011;48769;51.624;5.886;2023-03-16T11:46:35;6.30;;;3.60;;
62707;SDS011;48769;51.624;5.886;2023-03-16T11:52:02;4.85;;;2.83;;
62707;SDS011;48769;51.624;5.886;2023-03-16T11:54:50;6.20;;;3.00;;
62707;SDS011;48769;51.624;5.886;2023-03-16T11:57:34;5.18;;;3.30;;
62707;SDS011;48769;51.624;5.886;2023-03-16T12:00:18;6.53;;;3.60;;
62707;SDS011;48769;51.624;5.886;2023-03-16T12:14:35;5.32;;;3.58;;
62707;SDS011;48769;51.624;5.886;2023-03-16T12:19:39;5.57;;;3.03;;
62707;SDS011;48769;51.624;5.886;2023-03-16T12:22:13;4.50;;;2.90;;
62707;SDS011;48769;51.624;5.886;2023-03-16T12:24:41;7.15;;;2.80;;
62707;SDS011;48769;51.624;5.886;2023-03-16T12:27:11;8.63;;;2.95;;
62707;SDS011;48769;51.624;5.886;2023-03-16T12:38:17;4.93;;;3.08;;
62707;SDS011;48769;51.624;5.886;2023-03-16T12:43:32;4.50;;;2.47;;
62707;SDS011;48769;51.624;5.886;2023-03-16T12:46:16;5.72;;;2.65;;
62707;SDS011;48769;51.624;5.886;2023-03-16T12:48:55;6.38;;;2.70;;
62707;SDS011;48769;51.624;5.886;2023-03-16T12:51:39;7.57;;;2.88;;
62707;SDS011;48769;51.624;5.886;2023-03-16T12:54:22;6.10;;;2.22;;
62707;SDS011;48769;51.624;5.886;2023-03-16T12:56:49;8.00;;;2.90;;
62707;SDS011;48769;51.624;5.886;2023-03-16T12:59:21;7.47;;;2.67;;
62707;SDS011;48769;51.624;5.886;2023-03-16T13:01:50;4.20;;;2.38;;
62707;SDS011;48769;51.624;5.886;2023-03-16T13:04:21;5.45;;;2.72;;
62707;SDS011;48769;51.624;5.886;2023-03-16T13:07:03;5.82;;;2.65;;
62707;SDS011;48769;51.624;5.886;2023-03-16T13:09:33;4.95;;;2.20;;
62707;SDS011;48769;51.624;5.886;2023-03-16T13:12:00;4.90;;;2.55;;
62707;SDS011;48769;51.624;5.886;2023-03-16T13:19:42;5.88;;;2.15;;
62707;SDS011;48769;51.624;5.886;2023-03-16T13:22:27;5.80;;;2.22;;
62707;SDS011;48769;51.624;5.886;2023-03-16T13:24:59;3.13;;;2.03;;
62707;SDS011;48769;51.624;5.886;2023-03-16T13:27:47;4.15;;;2.20;;
62707;SDS011;48769;51.624;5.886;2023-03-16T13:30:17;4.95;;;2.17;;
62707;SDS011;48769;51.624;5.886;2023-03-16T13:32:44;9.07;;;2.60;;
62707;SDS011;48769;51.624;5.886;2023-03-16T13:35:12;5.45;;;2.28;;
62707;SDS011;48769;51.624;5.886;2023-03-16T13:37:39;5.38;;;2.10;;
62707;SDS011;48769;51.624;5.886;2023-03-16T13:40:17;4.97;;;2.05;;
62707;SDS011;48769;51.624;5.886;2023-03-16T13:42:47;4.50;;;2.20;;
62707;SDS011;48769;51.624;5.886;2023-03-16T13:45:18;4.03;;;2.20;;
62707;SDS011;48769;51.624;5.886;2023-03-16T13:47:48;5.85;;;2.20;;
62707;SDS011;48769;51.624;5.886;2023-03-16T13:50:15;5.60;;;2.25;;
62707;SDS011;48769;51.624;5.886;2023-03-16T13:52:43;4.10;;;1.83;;
62707;SDS011;48769;51.624;5.886;2023-03-16T13:55:16;6.50;;;2.30;;
62707;SDS011;48769;51.624;5.886;2023-03-16T13:57:46;6.95;;;2.13;;
62707;SDS011;48769;51.624;5.886;2023-03-16T14:00:17;9.27;;;2.35;;
62707;SDS011;48769;51.624;5.886;2023-03-16T14:02:47;6.15;;;2.45;;
62707;SDS011;48769;51.624;5.886;2023-03-16T14:05:17;3.38;;;2.03;;
62707;SDS011;48769;51.624;5.886;2023-03-16T14:07:47;3.85;;;1.67;;
62707;SDS011;48769;51.624;5.886;2023-03-16T14:10:13;6.00;;;2.10;;
62707;SDS011;48769;51.624;5.886;2023-03-16T14:12:54;5.60;;;2.10;;
62707;SDS011;48769;51.624;5.886;2023-03-16T14:15:21;5.90;;;1.98;;
62707;SDS011;48769;51.624;5.886;2023-03-16T14:17:50;5.03;;;1.95;;
62707;SDS011;48769;51.624;5.886;2023-03-16T14:20:20;7.05;;;2.03;;
62707;SDS011;48769;51.624;5.886;2023-03-16T14:22:50;3.28;;;1.90;;
62707;SDS011;48769;51.624;5.886;2023-03-16T14:25:23;5.30;;;1.92;;
62707;SDS011;48769;51.624;5.886;2023-03-16T14:27:58;3.58;;;1.65;;
62707;SDS011;48769;51.624;5.886;2023-03-16T14:30:26;6.95;;;1.92;;
62707;SDS011;48769;51.624;5.886;2023-03-16T14:35:25;7.28;;;2.35;;
62707;SDS011;48769;51.624;5.886;2023-03-16T14:41:04;5.65;;;2.35;;
62707;SDS011;48769;51.624;5.886;2023-03-16T14:43:44;6.60;;;2.05;;
62707;SDS011;48769;51.624;5.886;2023-03-16T14:46:12;3.63;;;2.00;;
62707;SDS011;48769;51.624;5.886;2023-03-16T14:48:42;4.22;;;1.73;;
62707;SDS011;48769;51.624;5.886;2023-03-16T14:51:10;4.50;;;2.08;;
62707;SDS011;48769;51.624;5.886;2023-03-16T14:53:38;2.53;;;1.67;;
62707;SDS011;48769;51.624;5.886;2023-03-16T14:56:08;4.25;;;1.75;;
62707;SDS011;48769;51.624;5.886;2023-03-16T14:58:36;6.23;;;1.50;;
62707;SDS011;48769;51.624;5.886;2023-03-16T15:01:01;4.95;;;1.80;;
62707;SDS011;48769;51.624;5.886;2023-03-16T15:03:31;5.00;;;1.98;;
62707;SDS011;48769;51.624;5.886;2023-03-16T15:05:58;5.35;;;1.88;;
62707;SDS011;48769;51.624;5.886;2023-03-16T15:08:26;3.67;;;1.60;;
62707;SDS011;48769;51.624;5.886;2023-03-16T15:10:59;5.47;;;2.10;;
62707;SDS011;48769;51.624;5.886;2023-03-16T15:13:29;6.25;;;2.42;;
62707;SDS011;48769;51.624;5.886;2023-03-16T15:16:04;6.00;;;2.30;;
62707;SDS011;48769;51.624;5.886;2023-03-16T15:18:33;4.18;;;2.03;;
62707;SDS011;48769;51.624;5.886;2023-03-16T15:21:00;2.88;;;1.58;;
62707;SDS011;48769;51.624;5.886;2023-03-16T15:23:26;6.13;;;2.00;;
62707;SDS011;48769;51.624;5.886;2023-03-16T15:25:53;4.65;;;1.75;;
62707;SDS011;48769;51.624;5.886;2023-03-16T15:28:24;5.13;;;1.90;;
62707;SDS011;48769;51.624;5.886;2023-03-16T15:30:55;5.60;;;2.00;;
62707;SDS011;48769;51.624;5.886;2023-03-16T15:33:23;8.80;;;1.70;;
62707;SDS011;48769;51.624;5.886;2023-03-16T15:35:49;3.55;;;1.75;;
62707;SDS011;48769;51.624;5.886;2023-03-16T15:38:18;5.45;;;1.55;;
62707;SDS011;48769;51.624;5.886;2023-03-16T15:40:46;8.77;;;2.15;;
62707;SDS011;48769;51.624;5.886;2023-03-16T15:43:15;6.30;;;1.98;;
62707;SDS011;48769;51.624;5.886;2023-03-16T15:45:46;4.55;;;1.55;;
62707;SDS011;48769;51.624;5.886;2023-03-16T15:48:12;8.20;;;1.60;;
62707;SDS011;48769;51.624;5.886;2023-03-16T15:50:39;7.20;;;1.90;;
62707;SDS011;48769;51.624;5.886;2023-03-16T15:53:12;5.40;;;2.10;;
62707;SDS011;48769;51.624;5.886;2023-03-16T15:56:03;3.60;;;1.38;;
62707;SDS011;48769;51.624;5.886;2023-03-16T15:58:31;7.25;;;1.83;;
62707;SDS011;48769;51.624;5.886;2023-03-16T16:00:59;5.38;;;1.55;;
62707;SDS011;48769;51.624;5.886;2023-03-16T16:03:25;3.75;;;1.67;;